Startpagina
METAR-TAF:

METAR-TAF

Vliegvelden :

Stanley, Falklandeilanden

breedte: 51-49S, lengte: 058-27W, hoogte: 74 m

Actueel weer

Dit bericht is 42 minuten geleden gemaakt, om 18:50 UTC
Wind 25 kt uit het zuidwesten
Temperatuur 13°C
Vochtigheid 58%
Druk 994 hPa
Zicht 10 km of meer
Weinig wolken op 2700 ft

METAR: EGYP 241850Z 22025KT 9999 FEW027 13/05 Q0994 NOSIG

Tijdstip: 16:32 (19:32 UTC)

Verwachting

Dit bericht is 3 uur en het 0 minuten geleden gemaakt, om 16:32 UTC
Verwachting geldig van 24 om 18 UTC tot 25 om 12 UTC
Wind 17 kt uit het zuidwesten met uitschieters tot 27 kt
Zicht 10 km of meer
Verspreide wolken op 3000 ft
Wijzigt naar
van 24 om 21 UTC tot 24 om 24 UTC
Wind 8 kt uit het zuidwesten
Kans 30%
van 25 om 05 UTC tot 25 om 10 UTC
Zicht: 0400 m
Verspreide wolken lager dan 100 ft
mist

TAF: EGYP 241632Z 2418/2512 23017G27KT 9999 SCT030 BECMG 2421/2424 23008KT PROB30 2505/2510 0400 FG SCT000

Waarnemingen en weersverwachtingen van meer dan 4000 vliegvelden (METAR en TAF).

De beschikbare stations zijn de gele en rode punten op de kaart.

Ga met uw muis naar het station om de naam te zien.

Klik dan om waarnemingen en weersverwachtingen te zien.

kaart wijzigen: klik op de groene knoppen met een zwart kruis om in te zoomen, op de groene knop met een streepje om uit te zoomen of op de groene pijlen voor aangrenzende kaarten.


METAR-TAF: